Time;durP1;ratioP1;P1;durP2;ratioP2;P2;SDS_P1;SDS_P2;PMS_P1;PMS_P2;Temp;Humidity;BMP_temperature;BMP_pressure;BME280_temperature;BME280_humidity;BME280_pressure;Samples;Min_cycle;Max_cycle;Signal;HPM_P1;HPM_P2
2021/11/17 02:26:39;;;;;;;72.15;29.90;;;6.00;99.90;;;;;;4990479;28;20084;-61
2021/11/17 02:29:55;;;;;;;67.40;29.10;;;6.00;99.90;;;;;;4990412;28;20411;-61
2021/11/17 02:32:42;;;;;;;80.18;31.05;;;6.00;99.90;;;;;;4965783;28;20049;-61
2021/11/17 02:35:38;;;;;;;64.57;27.75;;;6.00;99.90;;;;;;4990776;28;20394;-61
2021/11/17 02:38:36;;;;;;;67.93;27.35;;;6.00;99.90;;;;;;4972748;28;20077;-60
2021/11/17 02:41:05;;;;;;;76.07;31.17;;;6.00;99.90;;;;;;4991048;28;20030;-61
2021/11/17 02:43:36;;;;;;;75.53;31.33;;;6.00;99.90;;;;;;4990184;28;20034;-61
2021/11/17 02:46:38;;;;;;;66.15;29.02;;;6.00;99.90;;;;;;4989784;28;20489;-60
2021/11/17 02:49:25;;;;;;;72.95;29.60;;;6.10;99.90;;;;;;4990279;28;20031;-60
2021/11/17 02:51:59;;;;;;;65.15;27.98;;;6.00;99.90;;;;;;4990463;28;20023;-61
2021/11/17 02:54:58;;;;;;;66.88;29.42;;;6.10;99.90;;;;;;4991006;28;20028;-60
2021/11/17 02:57:41;;;;;;;68.30;27.83;;;6.10;99.90;;;;;;4990043;28;20034;-61
2021/11/17 03:00:28;;;;;;;66.47;28.05;;;6.10;99.90;;;;;;4990311;28;20044;-61
2021/11/17 03:03:31;;;;;;;63.55;28.63;;;6.10;99.90;;;;;;4968450;28;20387;-61
2021/11/17 03:06:25;;;;;;;63.13;27.80;;;6.10;99.90;;;;;;4990480;28;20454;-61
2021/11/17 03:08:57;;;;;;;69.50;29.48;;;6.10;99.90;;;;;;4989935;28;20029;-60
2021/11/17 03:11:32;;;;;;;65.28;28.10;;;6.00;99.90;;;;;;4989657;28;20046;-60
2021/11/17 03:14:51;;;;;;;65.57;29.98;;;6.00;99.90;;;;;;4988060;28;20521;-60
2021/11/17 03:17:32;;;;;;;63.83;29.02;;;6.10;99.90;;;;;;4949683;29;20031;-60
2021/11/17 03:20:13;;;;;;;66.18;27.42;;;6.10;99.90;;;;;;4978417;28;20030;-60
2021/11/17 03:23:13;;;;;;;66.88;28.83;;;6.00;99.90;;;;;;4975399;28;20033;-60
2021/11/17 03:25:41;;;;;;;66.63;28.27;;;6.00;99.90;;;;;;4993557;28;20062;-61
2021/11/17 03:28:42;;;;;;;67.50;27.30;;;6.00;99.90;;;;;;4985515;28;20088;-60
2021/11/17 03:31:20;;;;;;;63.17;27.60;;;6.10;99.90;;;;;;4988888;28;20425;-60
2021/11/17 03:34:00;;;;;;;61.95;26.60;;;6.10;99.90;;;;;;4993699;28;20023;-60
2021/11/17 03:36:33;;;;;;;63.28;27.02;;;6.10;99.90;;;;;;4993488;28;20034;-60
2021/11/17 03:39:04;;;;;;;63.50;28.30;;;6.10;99.90;;;;;;4974856;28;20031;-60
2021/11/17 03:41:58;;;;;;;63.20;28.20;;;6.20;99.90;;;;;;4993700;28;20037;-61
2021/11/17 03:44:54;;;;;;;64.22;28.48;;;6.10;99.90;;;;;;4993191;28;20037;-61
2021/11/17 03:47:47;;;;;;;62.08;27.83;;;6.20;99.90;;;;;;4992335;28;20109;-60
2021/11/17 03:50:41;;;;;;;57.47;26.15;;;6.20;99.90;;;;;;4991952;28;20030;-61
2021/11/17 03:53:16;;;;;;;62.05;27.20;;;6.10;99.90;;;;;;4993113;28;20056;-61
2021/11/17 03:55:55;;;;;;;62.28;26.95;;;6.10;99.90;;;;;;4975107;28;20057;-60
2021/11/17 03:58:49;;;;;;;66.05;28.02;;;6.10;99.90;;;;;;4992420;28;20041;-61
2021/11/17 04:01:40;;;;;;;69.10;28.77;;;6.10;99.90;;;;;;4993515;28;20911;-60
2021/11/17 04:04:05;;;;;;;64.70;25.75;;;6.20;99.90;;;;;;4993058;28;20040;-61
2021/11/17 04:06:52;;;;;;;59.47;26.27;;;6.10;99.90;;;;;;4993326;28;20030;-61
2021/11/17 04:09:26;;;;;;;63.78;27.35;;;6.10;99.90;;;;;;4991769;28;20528;-61
2021/11/17 04:12:11;;;;;;;53.17;24.17;;;6.20;99.90;;;;;;5010920;28;20042;-61
2021/11/17 04:14:36;;;;;;;59.20;25.15;;;6.20;99.90;;;;;;5011072;28;20409;-60
2021/11/17 04:17:27;;;;;;;70.80;28.35;;;6.20;99.90;;;;;;5012916;28;20041;-61
2021/11/17 04:20:16;;;;;;;61.80;27.40;;;6.20;99.90;;;;;;5010759;28;20024;-61
2021/11/17 04:22:57;;;;;;;63.03;26.88;;;6.30;99.90;;;;;;5011541;28;20026;-61
2021/11/17 04:25:50;;;;;;;62.80;27.08;;;6.30;99.90;;;;;;5005057;28;20050;-61
2021/11/17 04:28:50;;;;;;;63.38;26.08;;;6.30;99.90;;;;;;5012064;28;20117;-60
2021/11/17 04:31:50;;;;;;;63.25;26.42;;;6.30;99.90;;;;;;5002989;28;20068;-61
2021/11/17 04:34:41;;;;;;;64.25;26.25;;;6.30;99.90;;;;;;5012718;28;20391;-61
2021/11/17 04:37:32;;;;;;;67.63;27.75;;;6.30;99.90;;;;;;5004365;28;20306;-60
2021/11/17 04:40:00;;;;;;;63.47;26.58;;;6.30;99.90;;;;;;5011762;28;20045;-60
2021/11/17 04:42:47;;;;;;;64.15;27.10;;;6.30;99.90;;;;;;5012292;28;20034;-60
2021/11/17 04:45:45;;;;;;;63.13;25.60;;;6.30;99.90;;;;;;4995420;28;20053;-61
2021/11/17 04:48:28;;;;;;;61.65;24.83;;;6.30;99.90;;;;;;5011968;28;20063;-60
2021/11/17 04:50:59;;;;;;;70.13;27.42;;;6.30;99.90;;;;;;5012549;28;20057;-61
2021/11/17 04:54:13;;;;;;;62.10;26.60;;;6.30;99.90;;;;;;5012471;28;20026;-61
2021/11/17 04:57:07;;;;;;;69.20;28.17;;;6.30;99.90;;;;;;4993429;28;20073;-61
2021/11/17 04:59:51;;;;;;;62.92;25.77;;;6.30;99.90;;;;;;5011433;28;20409;-60
2021/11/17 05:02:35;;;;;;;68.93;25.55;;;6.30;99.90;;;;;;5010645;28;20044;-61
2021/11/17 05:05:14;;;;;;;68.28;27.30;;;6.30;99.90;;;;;;5011846;28;20061;-61
2021/11/17 05:07:42;;;;;;;65.82;26.27;;;6.30;99.90;;;;;;5004692;28;20030;-60
2021/11/17 05:10:26;;;;;;;68.80;26.17;;;6.20;99.90;;;;;;5011625;28;20053;-61
2021/11/17 05:13:30;;;;;;;65.95;27.10;;;6.30;99.90;;;;;;5011496;28;20028;-60
2021/11/17 05:16:04;;;;;;;62.97;25.75;;;6.30;99.90;;;;;;4989097;28;20482;-61
2021/11/17 05:18:29;;;;;;;64.30;25.52;;;6.20;99.90;;;;;;5003678;28;20547;-60
2021/11/17 05:21:27;;;;;;;60.60;25.42;;;6.20;99.90;;;;;;4994167;28;20022;-60
2021/11/17 05:24:14;;;;;;;67.18;25.17;;;6.20;99.90;;;;;;5002449;28;20021;-61
2021/11/17 05:27:17;;;;;;;65.80;26.50;;;6.20;99.90;;;;;;5003224;28;20034;-60
2021/11/17 05:30:08;;;;;;;72.40;27.45;;;6.20;99.90;;;;;;5002317;28;20490;-61
2021/11/17 05:32:51;;;;;;;66.55;28.60;;;6.20;99.90;;;;;;5011596;28;20026;-61
2021/11/17 05:35:42;;;;;;;63.47;25.15;;;6.20;99.90;;;;;;4993859;28;20014;-61
2021/11/17 05:38:22;;;;;;;61.90;24.98;;;6.20;99.90;;;;;;5010714;28;20030;-60
2021/11/17 05:41:01;;;;;;;66.63;26.83;;;6.20;99.90;;;;;;5011381;28;20393;-61
2021/11/17 05:43:41;;;;;;;66.07;26.55;;;6.20;99.90;;;;;;5010061;28;20026;-61
2021/11/17 05:46:19;;;;;;;59.55;25.63;;;6.20;99.90;;;;;;5010504;28;20037;-60
2021/11/17 05:48:54;;;;;;;66.88;26.00;;;6.20;99.90;;;;;;5010633;28;20061;-61
2021/11/17 05:51:45;;;;;;;64.88;25.60;;;6.20;99.90;;;;;;5002216;28;20048;-60
2021/11/17 05:54:42;;;;;;;64.10;25.48;;;6.20;99.90;;;;;;5011031;28;20029;-61
2021/11/17 05:57:36;;;;;;;65.00;25.95;;;6.20;99.90;;;;;;5010318;28;20030;-60
2021/11/17 06:00:31;;;;;;;59.63;24.10;;;6.20;99.90;;;;;;4991063;28;20026;-61
2021/11/17 06:03:51;;;;;;;62.97;24.60;;;6.20;99.90;;;;;;4993556;28;20017;-60
2021/11/17 06:06:16;;;;;;;64.32;25.33;;;6.20;99.90;;;;;;5009496;28;20038;-61
2021/11/17 06:08:41;;;;;;;59.83;24.95;;;6.20;99.90;;;;;;5002294;28;20018;-62
2021/11/17 06:11:07;;;;;;;60.20;25.00;;;6.20;99.90;;;;;;5005872;28;21322;-60
2021/11/17 06:13:33;;;;;;;69.97;25.70;;;6.30;99.90;;;;;;4992855;28;20028;-60
2021/11/17 06:16:00;;;;;;;63.47;24.80;;;6.30;99.90;;;;;;5010520;28;20030;-61
2021/11/17 06:18:29;;;;;;;60.65;26.35;;;6.30;99.90;;;;;;5003223;28;20552;-60
2021/11/17 06:20:55;;;;;;;61.97;25.35;;;6.30;99.90;;;;;;5009064;28;20073;-61
2021/11/17 06:23:24;;;;;;;64.75;26.27;;;6.30;99.90;;;;;;5010613;28;20477;-60
2021/11/17 06:25:51;;;;;;;64.80;26.15;;;6.30;99.90;;;;;;4993002;28;20026;-60
2021/11/17 06:28:25;;;;;;;60.90;23.77;;;6.40;99.90;;;;;;4993331;28;20049;-60
2021/11/17 06:30:52;;;;;;;58.58;24.40;;;6.40;99.90;;;;;;5011135;28;20030;-60
2021/11/17 06:33:18;;;;;;;58.72;25.95;;;6.40;99.90;;;;;;5012105;28;20038;-60
2021/11/17 06:35:44;;;;;;;64.68;26.60;;;6.40;99.90;;;;;;5011548;28;20100;-60
2021/11/17 06:38:09;;;;;;;64.47;26.08;;;6.40;99.90;;;;;;5008223;28;20026;-60
2021/11/17 06:40:43;;;;;;;69.25;26.25;;;6.50;99.90;;;;;;5011708;28;20462;-60
2021/11/17 06:43:09;;;;;;;64.72;25.90;;;6.50;99.90;;;;;;5012171;28;20025;-60
2021/11/17 06:45:36;;;;;;;57.53;24.45;;;6.50;99.90;;;;;;5012071;28;20172;-60
2021/11/17 06:48:02;;;;;;;61.55;26.52;;;6.50;99.90;;;;;;5012269;28;20026;-60
2021/11/17 06:50:28;;;;;;;60.92;26.83;;;6.50;99.90;;;;;;5012252;28;20072;-60
2021/11/17 06:52:54;;;;;;;59.47;26.25;;;6.60;99.90;;;;;;5012477;28;20363;-60
2021/11/17 06:55:20;;;;;;;66.20;26.55;;;6.60;99.90;;;;;;5012137;28;20041;-60
2021/11/17 06:57:46;;;;;;;58.38;25.60;;;6.60;99.90;;;;;;5015873;28;20034;-61
2021/11/17 07:00:19;;;;;;;57.03;24.58;;;6.70;99.90;;;;;;5016061;28;20022;-60
2021/11/17 07:02:44;;;;;;;63.85;26.65;;;6.70;99.90;;;;;;5016162;28;20033;-60
2021/11/17 07:05:16;;;;;;;59.20;25.90;;;6.70;99.90;;;;;;4998164;28;20030;-60
2021/11/17 07:07:41;;;;;;;60.10;26.00;;;6.70;99.90;;;;;;4998123;28;20080;-60
2021/11/17 07:10:10;;;;;;;54.42;24.52;;;6.70;99.90;;;;;;5015856;28;20034;-62
2021/11/17 07:12:36;;;;;;;56.53;23.80;;;6.80;99.90;;;;;;4998316;28;20061;-61
2021/11/17 07:15:03;;;;;;;60.17;25.52;;;6.80;99.90;;;;;;5015660;28;20080;-61
2021/11/17 07:17:29;;;;;;;58.28;26.27;;;6.80;99.90;;;;;;5007355;28;20111;-61
2021/11/17 07:19:54;;;;;;;58.63;25.95;;;6.80;99.90;;;;;;5011691;28;20065;-60
2021/11/17 07:22:20;;;;;;;60.85;25.95;;;6.90;99.90;;;;;;4998062;28;20030;-60
2021/11/17 07:24:45;;;;;;;58.92;26.30;;;6.90;99.90;;;;;;5014076;28;20112;-61
2021/11/17 07:27:18;;;;;;;64.07;27.05;;;6.90;99.90;;;;;;5015578;28;20045;-60
2021/11/17 07:29:44;;;;;;;62.33;26.23;;;6.90;99.90;;;;;;5015381;28;20125;-60
2021/11/17 07:32:09;;;;;;;62.08;25.85;;;6.90;99.90;;;;;;5015411;28;20492;-61
2021/11/17 07:34:35;;;;;;;58.75;25.35;;;7.00;99.90;;;;;;5014756;28;20072;-61
2021/11/17 07:37:01;;;;;;;63.33;26.90;;;7.00;99.90;;;;;;5015527;28;20504;-61
2021/11/17 07:39:26;;;;;;;68.80;26.95;;;7.00;99.90;;;;;;5015445;28;20034;-60
2021/11/17 07:41:55;;;;;;;68.53;28.67;;;7.00;99.90;;;;;;5015407;28;20468;-61
2021/11/17 07:44:22;;;;;;;74.05;29.95;;;7.10;99.90;;;;;;5015219;28;20026;-60
2021/11/17 07:47:09;;;;;;;65.97;28.75;;;7.00;99.90;;;;;;5014893;28;20029;-61
2021/11/17 07:49:48;;;;;;;74.72;29.98;;;7.10;99.90;;;;;;4997671;28;20033;-60
2021/11/17 07:52:14;;;;;;;65.80;28.35;;;7.10;99.90;;;;;;5015260;28;20029;-60
2021/11/17 07:54:39;;;;;;;68.88;29.38;;;7.10;99.90;;;;;;5015342;28;20034;-60
2021/11/17 07:57:32;;;;;;;65.53;27.35;;;7.10;99.90;;;;;;5001148;28;20585;-61
2021/11/17 07:59:58;;;;;;;67.68;29.25;;;7.20;99.90;;;;;;5008062;28;20042;-61
2021/11/17 08:02:24;;;;;;;68.38;27.67;;;7.20;99.90;;;;;;5013461;28;20033;-61
2021/11/17 08:04:50;;;;;;;71.35;30.23;;;7.20;99.90;;;;;;5011847;28;20036;-61
2021/11/17 08:07:19;;;;;;;68.93;29.73;;;7.20;99.90;;;;;;4996090;28;20121;-61
2021/11/17 08:09:46;;;;;;;63.97;27.73;;;7.20;99.90;;;;;;5014090;28;20022;-61
2021/11/17 08:12:12;;;;;;;60.95;25.98;;;7.30;99.90;;;;;;5008032;28;20056;-61
2021/11/17 08:14:38;;;;;;;59.83;24.65;;;7.30;99.90;;;;;;4987813;28;20380;-60
2021/11/17 08:17:04;;;;;;;63.83;26.77;;;7.40;99.90;;;;;;4981998;28;20061;-60
2021/11/17 08:19:30;;;;;;;60.15;27.10;;;7.40;99.90;;;;;;5014199;28;20040;-60
2021/11/17 08:21:57;;;;;;;71.13;28.67;;;7.40;99.90;;;;;;5014200;28;20038;-60
2021/11/17 08:24:22;;;;;;;68.28;27.58;;;7.50;99.90;;;;;;5014007;28;20108;-60
2021/11/17 08:26:48;;;;;;;69.13;28.08;;;7.50;99.90;;;;;;5014471;28;20153;-60
2021/11/17 08:29:14;;;;;;;70.35;27.85;;;7.50;99.90;;;;;;4996615;28;20065;-59
2021/11/17 08:31:40;;;;;;;63.88;27.20;;;7.50;99.90;;;;;;5014079;28;20030;-59
2021/11/17 08:34:06;;;;;;;70.10;28.73;;;7.60;99.90;;;;;;5013634;28;20088;-60
2021/11/17 08:36:32;;;;;;;63.05;27.05;;;7.50;99.90;;;;;;5012565;28;20030;-60
2021/11/17 08:38:57;;;;;;;72.00;28.15;;;7.60;99.90;;;;;;4999969;28;20022;-59
2021/11/17 08:41:46;;;;;;;71.22;28.85;;;7.60;99.90;;;;;;5012171;28;20378;-59
2021/11/17 08:44:12;;;;;;;72.53;31.00;;;7.60;99.90;;;;;;4994033;28;20034;-60
2021/11/17 08:46:38;;;;;;;73.70;30.52;;;7.60;99.90;;;;;;5013744;28;20335;-59
2021/11/17 08:49:21;;;;;;;82.63;33.00;;;7.60;99.90;;;;;;5012290;28;20419;-59
2021/11/17 08:51:47;;;;;;;70.10;29.17;;;7.70;99.90;;;;;;5012275;28;20509;-59
2021/11/17 08:54:13;;;;;;;73.20;30.92;;;7.60;99.90;;;;;;5011904;28;20109;-59
2021/11/17 08:56:39;;;;;;;75.05;31.95;;;7.70;99.90;;;;;;5012083;28;20032;-59
2021/11/17 08:59:05;;;;;;;73.53;29.17;;;7.70;99.90;;;;;;5011791;28;20021;-60
2021/11/17 09:01:32;;;;;;;67.47;28.73;;;7.70;99.90;;;;;;5011592;28;20033;-59
2021/11/17 09:04:06;;;;;;;77.43;31.25;;;7.80;99.90;;;;;;5011727;28;20481;-59
2021/11/17 09:06:33;;;;;;;74.63;29.73;;;7.80;99.90;;;;;;5011686;28;20038;-59
2021/11/17 09:09:04;;;;;;;69.65;27.42;;;7.80;99.90;;;;;;5011651;28;20100;-59
2021/11/17 09:11:29;;;;;;;75.03;29.80;;;7.80;99.90;;;;;;4993753;28;20461;-59
2021/11/17 09:13:55;;;;;;;74.07;30.33;;;7.90;99.90;;;;;;5010914;28;20030;-60
2021/11/17 09:16:20;;;;;;;76.88;32.30;;;7.90;99.90;;;;;;5011529;28;20033;-60
2021/11/17 09:18:46;;;;;;;81.30;30.48;;;7.90;99.90;;;;;;5010679;28;20089;-60
2021/11/17 09:21:17;;;;;;;83.68;33.17;;;7.90;99.90;;;;;;5011594;28;20367;-60
2021/11/17 09:23:43;;;;;;;73.55;31.13;;;7.90;99.90;;;;;;4993606;28;20088;-60
2021/11/17 09:26:09;;;;;;;70.10;29.70;;;8.00;99.90;;;;;;5011477;28;20061;-59
2021/11/17 09:28:35;;;;;;;72.93;32.30;;;8.00;99.90;;;;;;5011217;28;20053;-60
2021/11/17 09:31:47;;;;;;;;;;;;;;;;;;;;;
2021/11/17 09:34:14;;;;;;;74.40;31.25;;;8.10;99.90;;;;;;5010515;28;20052;-61
2021/11/17 09:37:03;;;;;;;;;;;;;;;;;;;;;
2021/11/17 09:39:56;;;;;;;76.60;30.20;;;8.10;99.90;;;;;;5009573;28;20030;-61
2021/11/17 09:42:22;;;;;;;78.50;31.63;;;8.20;99.90;;;;;;5007365;28;20064;-61
2021/11/17 09:44:48;;;;;;;78.47;33.10;;;8.20;99.90;;;;;;4993938;28;20108;-60
2021/11/17 09:47:17;;;;;;;79.75;32.95;;;8.30;99.90;;;;;;5012585;28;20474;-61
2021/11/17 09:50:17;;;;;;;73.00;30.98;;;8.30;99.90;;;;;;5012229;28;20466;-60
2021/11/17 09:52:48;;;;;;;71.75;30.10;;;8.30;99.90;;;;;;5012797;28;20029;-61
2021/11/17 09:55:21;;;;;;;87.07;34.67;;;8.40;99.90;;;;;;5010662;28;20026;-60
2021/11/17 09:58:07;;;;;;;75.82;32.33;;;8.40;99.90;;;;;;5012179;28;20101;-61
2021/11/17 10:00:43;;;;;;;88.07;33.78;;;8.50;99.90;;;;;;4992429;28;20537;-61
2021/11/17 10:03:18;;;;;;;79.93;33.53;;;8.50;99.90;;;;;;5012434;28;20053;-61
2021/11/17 10:06:34;;;;;;;68.47;28.00;;;8.60;99.90;;;;;;4994798;28;20026;-60
2021/11/17 10:14:51;;;;;;;93.70;37.60;;;8.70;99.90;;;;;;5011002;28;20030;-61
2021/11/17 10:17:31;;;;;;;83.78;35.60;;;8.80;99.90;;;;;;4993990;28;20121;-60
2021/11/17 10:20:06;;;;;;;;;;;8.90;99.90;;;;;;4978142;28;20029;-60
2021/11/17 10:22:31;;;;;;;90.43;36.03;;;8.80;99.90;;;;;;5011048;28;19910;-61
2021/11/17 10:25:12;;;;;;;80.88;34.38;;;8.80;99.90;;;;;;5011795;28;20112;-60
2021/11/17 10:27:48;;;;;;;89.43;35.70;;;8.90;99.90;;;;;;5012738;28;20080;-60
2021/11/17 10:30:26;;;;;;;78.82;33.63;;;8.90;99.90;;;;;;5012126;28;20022;-60
2021/11/17 10:33:20;;;;;;;75.22;33.25;;;9.00;99.90;;;;;;5012516;28;20022;-61
2021/11/17 10:35:58;;;;;;;77.95;33.97;;;9.00;99.90;;;;;;5010729;28;20508;-60
2021/11/17 10:38:45;;;;;;;82.28;33.70;;;9.00;99.90;;;;;;5011971;28;20072;-61
2021/11/17 10:41:25;;;;;;;77.53;31.75;;;9.00;99.90;;;;;;5012005;28;20116;-60
2021/11/17 10:43:56;;;;;;;75.18;33.20;;;9.10;99.90;;;;;;5012020;28;20026;-61
2021/11/17 10:46:47;;;;;;;76.75;31.90;;;9.10;99.90;;;;;;5011613;28;20022;-61
2021/11/17 10:49:16;;;;;;;85.13;35.70;;;9.20;99.90;;;;;;4994030;28;20406;-61
2021/11/17 10:51:58;;;;;;;78.38;33.38;;;9.20;99.90;;;;;;5012061;28;20033;-61
2021/11/17 10:54:28;;;;;;;76.18;32.50;;;9.30;99.90;;;;;;5011707;28;20041;-61
2021/11/17 10:57:05;;;;;;;76.55;33.33;;;9.40;99.90;;;;;;5011835;28;20036;-61
2021/11/17 10:59:32;;;;;;;79.63;32.70;;;9.50;99.90;;;;;;5011759;28;20034;-60
2021/11/17 11:01:59;;;;;;;74.78;32.50;;;9.50;99.90;;;;;;4993781;28;20434;-60
2021/11/17 11:04:38;;;;;;;71.03;29.95;;;9.60;99.90;;;;;;5011987;28;20021;-61
2021/11/17 11:07:26;;;;;;;65.53;28.65;;;9.60;99.90;;;;;;5010583;28;20113;-61
2021/11/17 11:09:58;;;;;;;81.07;33.88;;;9.70;99.90;;;;;;4990670;28;20034;-61
2021/11/17 11:12:27;;;;;;;75.28;32.92;;;9.70;99.90;;;;;;5011419;28;20046;-61
2021/11/17 11:15:10;;;;;;;83.03;35.05;;;9.70;99.90;;;;;;5011755;28;20057;-60
2021/11/17 11:17:43;;;;;;;70.28;32.38;;;9.80;99.90;;;;;;5011547;28;20072;-60
2021/11/17 11:20:44;;;;;;;68.13;30.90;;;9.90;99.90;;;;;;5008647;28;20032;-60
2021/11/17 11:23:43;;;;;;;68.82;30.17;;;10.00;99.90;;;;;;4990391;28;20038;-61
2021/11/17 11:26:20;;;;;;;67.25;31.00;;;10.10;99.90;;;;;;4969875;28;20042;-61
2021/11/17 11:28:46;;;;;;;64.32;29.10;;;10.10;99.90;;;;;;5008068;28;20053;-61
2021/11/17 11:31:11;;;;;;;68.53;31.02;;;10.20;99.90;;;;;;5011426;28;20474;-61
2021/11/17 11:33:49;;;;;;;71.10;31.08;;;10.30;99.90;;;;;;4993925;28;20394;-61
2021/11/17 11:36:15;;;;;;;63.75;30.08;;;10.30;99.90;;;;;;5011161;28;20486;-62
2021/11/17 11:38:59;;;;;;;63.72;30.45;;;10.40;99.90;;;;;;5004853;28;20088;-61
2021/11/17 11:41:37;;;;;;;67.95;31.95;;;10.50;99.90;;;;;;4979817;28;20026;-60
2021/11/17 11:44:22;;;;;;;73.03;31.30;;;10.60;99.90;;;;;;5008830;28;20033;-61
2021/11/17 11:46:58;;;;;;;65.43;33.05;;;10.60;99.90;;;;;;5013681;28;20026;-61
2021/11/17 11:49:32;;;;;;;66.35;30.95;;;10.60;99.90;;;;;;5014732;28;20030;-61
2021/11/17 11:52:23;;;;;;;64.43;30.20;;;10.90;99.90;;;;;;5006609;28;20026;-61
2021/11/17 11:54:54;;;;;;;55.95;27.10;;;11.30;99.90;;;;;;5013490;28;20021;-61
2021/11/17 11:57:28;;;;;;;55.55;27.98;;;11.50;99.90;;;;;;5014765;28;20026;-61
2021/11/17 12:00:01;;;;;;;59.22;28.23;;;11.70;99.90;;;;;;5014985;28;20430;-63
2021/11/17 12:02:32;;;;;;;47.95;24.13;;;12.10;99.90;;;;;;5007898;28;20088;-61
2021/11/17 12:05:01;;;;;;;45.63;24.40;;;13.00;99.90;;;;;;5014268;28;20084;-61
2021/11/17 12:08:00;;;;;;;;;;;;;;;;;;;;;
2021/11/17 12:10:32;;;;;;;41.80;24.67;;;13.40;99.90;;;;;;5014475;28;20030;-61
2021/11/17 12:13:13;;;;;;;46.45;25.27;;;13.20;99.90;;;;;;4996759;28;20026;-61
2021/11/17 12:16:04;;;;;;;44.72;25.27;;;12.90;99.90;;;;;;5013811;28;20417;-61
2021/11/17 12:18:43;;;;;;;41.50;23.02;;;12.70;99.90;;;;;;5004558;28;20030;-61
2021/11/17 12:21:14;;;;;;;42.97;22.48;;;12.60;99.90;;;;;;5010109;28;20033;-61
2021/11/17 12:23:42;;;;;;;39.60;21.52;;;12.50;99.90;;;;;;5012641;28;20042;-61
2021/11/17 12:26:11;;;;;;;41.22;21.95;;;12.60;99.90;;;;;;5012217;28;20109;-61
2021/11/17 12:28:48;;;;;;;41.22;21.10;;;12.60;99.90;;;;;;5012321;28;20018;-61
2021/11/17 12:31:20;;;;;;;39.67;20.95;;;12.60;99.90;;;;;;5012398;28;20029;-61
2021/11/17 12:33:50;;;;;;;36.70;18.83;;;12.50;99.90;;;;;;5012603;28;20029;-61
2021/11/17 12:36:29;;;;;;;32.50;18.58;;;12.50;99.90;;;;;;5011755;28;20095;-61
2021/11/17 12:39:07;;;;;;;36.65;20.27;;;12.60;99.90;;;;;;5011420;28;20034;-61
2021/11/17 12:41:36;;;;;;;32.22;19.33;;;12.90;99.90;;;;;;5012284;28;20030;-61
2021/11/17 12:44:20;;;;;;;29.08;17.75;;;13.10;99.90;;;;;;5010656;28;20080;-62
2021/11/17 12:46:48;;;;;;;36.00;19.02;;;13.20;99.90;;;;;;5012084;28;20036;-61
2021/11/17 12:49:16;;;;;;;31.88;17.75;;;13.30;99.90;;;;;;5012063;28;20022;-61
2021/11/17 12:52:09;;;;;;;27.50;15.52;;;13.40;99.90;;;;;;5011675;28;20026;-61
2021/11/17 12:55:08;;;;;;;;;;;;;;;;;;;;;
2021/11/17 12:57:37;;;;;;;26.05;15.55;;;13.30;99.90;;;;;;5011467;28;20041;-61
2021/11/17 13:00:29;;;;;;;31.73;16.38;;;13.30;99.90;;;;;;5011478;28;20029;-61
2021/11/17 13:02:58;;;;;;;29.25;15.65;;;13.30;99.90;;;;;;4976005;28;20046;-62
2021/11/17 13:05:39;;;;;;;26.13;15.15;;;13.40;99.90;;;;;;5011945;28;20037;-61
2021/11/17 13:08:04;;;;;;;27.27;14.48;;;13.50;99.90;;;;;;5011328;28;20026;-61
2021/11/17 13:10:49;;;;;;;25.55;15.43;;;13.50;99.90;;;;;;5011469;28;20169;-61
2021/11/17 13:13:17;;;;;;;26.40;14.27;;;13.40;99.90;;;;;;5010773;28;20037;-62
2021/11/17 13:15:52;;;;;;;24.20;14.45;;;13.30;99.90;;;;;;4995553;28;20033;-61
2021/11/17 13:18:38;;;;;;;26.35;14.93;;;13.30;99.90;;;;;;5013206;28;20478;-61
2021/11/17 13:21:29;;;;;;;22.60;11.13;;;13.20;99.90;;;;;;4995476;28;20038;-61
2021/11/17 13:24:06;;;;;;;17.27;8.25;;;13.10;99.90;;;;;;5010439;28;20038;-61
2021/11/17 13:26:36;;;;;;;13.60;4.40;;;13.00;99.90;;;;;;5012843;28;20394;-61
2021/11/17 13:29:26;;;;;;;15.07;4.05;;;13.00;99.90;;;;;;5013389;28;20382;-61
2021/11/17 13:32:14;;;;;;;7.50;3.15;;;13.00;99.50;;;;;;5013407;28;20128;-61
2021/11/17 13:34:47;;;;;;;11.68;3.45;;;13.00;99.40;;;;;;5012878;28;20069;-61
2021/11/17 13:37:36;;;;;;;11.80;2.22;;;13.00;99.40;;;;;;5011756;28;20026;-61
2021/11/17 13:40:17;;;;;;;8.98;2.03;;;13.00;98.70;;;;;;4985937;28;20030;-61
2021/11/17 13:42:43;;;;;;;8.68;2.03;;;12.90;98.50;;;;;;5011780;28;20021;-61
2021/11/17 13:45:22;;;;;;;13.65;2.20;;;12.80;98.00;;;;;;5012784;28;20026;-62
2021/11/17 13:47:49;;;;;;;9.70;2.38;;;12.80;97.70;;;;;;5012669;28;20030;-61
2021/11/17 13:50:42;;;;;;;12.15;2.15;;;12.70;97.70;;;;;;4994817;28;20441;-61
2021/11/17 13:53:11;;;;;;;12.02;2.50;;;12.60;97.40;;;;;;5012482;28;20025;-61
2021/11/17 13:55:40;;;;;;;12.25;2.05;;;12.60;97.30;;;;;;5012404;28;20489;-61
2021/11/17 13:58:07;;;;;;;12.90;2.28;;;12.50;97.30;;;;;;5012741;28;20030;-61
2021/11/17 14:00:34;;;;;;;11.63;2.40;;;12.50;97.30;;;;;;4985465;28;20042;-61
2021/11/17 14:03:00;;;;;;;12.93;2.33;;;12.40;97.20;;;;;;5004921;28;20084;-61
2021/11/17 14:05:26;;;;;;;9.88;2.05;;;12.40;97.20;;;;;;5012344;28;20037;-61
2021/11/17 14:07:52;;;;;;;16.15;2.25;;;12.30;97.10;;;;;;5012189;28;20026;-62
2021/11/17 14:10:20;;;;;;;16.83;2.55;;;12.30;96.90;;;;;;5012131;28;20029;-61
2021/11/17 14:12:49;;;;;;;12.93;2.53;;;12.30;96.80;;;;;;5012208;28;20033;-61
2021/11/17 14:15:15;;;;;;;18.80;3.53;;;12.30;96.70;;;;;;4994387;28;20440;-61
2021/11/17 14:17:40;;;;;;;12.35;2.15;;;12.20;96.70;;;;;;5011337;28;20104;-61
2021/11/17 14:20:07;;;;;;;12.77;1.95;;;12.20;96.70;;;;;;5011515;28;20508;-61
2021/11/17 14:22:54;;;;;;;14.50;2.85;;;12.20;96.80;;;;;;5004499;28;20520;-61
2021/11/17 14:25:22;;;;;;;16.00;2.35;;;12.10;96.90;;;;;;5012137;28;20026;-61
2021/11/17 14:27:52;;;;;;;15.82;3.58;;;12.10;97.00;;;;;;5011170;28;20048;-61
2021/11/17 14:30:26;;;;;;;;;;;12.40;97.20;;;;;;5012179;28;20065;-61
2021/11/17 14:33:23;;;;;;;10.73;1.75;;;12.70;97.10;;;;;;5001629;28;19909;-61
2021/11/17 14:35:50;;;;;;;9.85;2.17;;;13.20;96.40;;;;;;4976347;28;20027;-61
2021/11/17 14:38:18;;;;;;;11.63;1.95;;;13.40;95.50;;;;;;4991089;28;20393;-61
2021/11/17 14:40:59;;;;;;;;;;;;;;;;;;;;;
2021/11/17 14:44:21;;;;;;;11.95;2.63;;;13.20;94.80;;;;;;5009596;28;20385;-61
2021/11/17 14:46:46;;;;;;;11.38;1.70;;;13.00;94.90;;;;;;5011306;28;20036;-61
2021/11/17 14:49:11;;;;;;;12.40;1.85;;;12.70;95.20;;;;;;5011707;28;20030;-61
2021/11/17 14:51:39;;;;;;;13.13;1.92;;;12.60;95.30;;;;;;5011686;28;20089;-61
2021/11/17 14:54:05;;;;;;;12.35;2.25;;;12.40;95.50;;;;;;5010257;28;20113;-61
2021/11/17 14:56:30;;;;;;;11.73;2.28;;;12.30;95.70;;;;;;4992803;28;20129;-60
2021/11/17 14:58:56;;;;;;;13.88;1.98;;;12.30;95.80;;;;;;5008772;28;20529;-62
2021/11/17 15:01:29;;;;;;;10.07;1.45;;;12.20;95.80;;;;;;5010291;28;20036;-61
2021/11/17 15:03:55;;;;;;;13.80;2.25;;;12.20;95.90;;;;;;5011538;28;20455;-62
2021/11/17 15:06:22;;;;;;;10.80;1.98;;;12.10;96.00;;;;;;5008405;28;20057;-61
2021/11/17 15:08:48;;;;;;;10.02;2.72;;;12.00;96.00;;;;;;4994492;28;20073;-61
2021/11/17 15:11:15;;;;;;;10.68;1.70;;;12.00;96.00;;;;;;4988969;28;20054;-61
2021/11/17 15:13:41;;;;;;;10.00;1.90;;;12.10;95.90;;;;;;4987076;28;20037;-61
2021/11/17 15:16:09;;;;;;;10.02;1.48;;;12.10;95.90;;;;;;5011368;28;20053;-61
2021/11/17 15:18:37;;;;;;;7.45;1.50;;;12.00;95.80;;;;;;5014705;28;20026;-61
2021/11/17 15:21:04;;;;;;;11.05;2.10;;;12.00;95.80;;;;;;5015502;28;20104;-61
2021/11/17 15:23:32;;;;;;;7.43;1.45;;;11.90;95.80;;;;;;5015198;28;20529;-61
2021/11/17 15:26:01;;;;;;;11.65;1.50;;;11.80;95.90;;;;;;5015250;28;20116;-61
2021/11/17 15:28:46;;;;;;;8.27;2.03;;;11.80;96.00;;;;;;5014935;28;20026;-61
2021/11/17 15:31:17;;;;;;;9.20;1.95;;;11.70;95.90;;;;;;5015194;28;20069;-61
2021/11/17 15:33:58;;;;;;;8.32;1.55;;;11.60;96.00;;;;;;4995790;28;20030;-61
2021/11/17 15:36:25;;;;;;;8.40;2.55;;;11.50;95.90;;;;;;5012907;28;20034;-61
2021/11/17 15:38:52;;;;;;;14.60;1.92;;;11.50;96.00;;;;;;5017568;28;20037;-61
2021/11/17 15:41:37;;;;;;;6.68;1.73;;;11.40;96.00;;;;;;5013144;28;20072;-62
2021/11/17 15:44:02;;;;;;;9.13;1.58;;;11.40;96.00;;;;;;5013351;28;20025;-61
2021/11/17 15:46:28;;;;;;;12.68;1.83;;;11.30;96.10;;;;;;5013406;28;20030;-62
2021/11/17 15:48:54;;;;;;;7.45;1.50;;;11.20;96.00;;;;;;5013426;28;20022;-61
2021/11/17 15:51:48;;;;;;;9.68;1.55;;;11.10;96.00;;;;;;5012897;28;20021;-62
2021/11/17 15:54:13;;;;;;;6.78;1.10;;;11.10;96.00;;;;;;4992768;28;20030;-62
2021/11/17 15:56:40;;;;;;;5.70;1.25;;;11.00;96.20;;;;;;5013155;28;20087;-62
2021/11/17 15:59:06;;;;;;;6.95;1.27;;;11.00;96.20;;;;;;5014934;28;20026;-62
2021/11/17 16:01:32;;;;;;;8.27;1.55;;;11.00;96.50;;;;;;5015174;28;20042;-62